sensor_id;sensor_type;location;lat;lon;timestamp;P1;durP1;ratioP1;P2;durP2;ratioP2
43962;SDS011;29622;45.534;9.242;2023-08-20T00:02:21;20.20;;;10.05;;
43962;SDS011;29622;45.534;9.242;2023-08-20T00:07:24;15.85;;;10.05;;
43962;SDS011;29622;45.534;9.242;2023-08-20T00:12:24;12.65;;;9.48;;
43962;SDS011;29622;45.534;9.242;2023-08-20T00:17:26;15.00;;;9.77;;
43962;SDS011;29622;45.534;9.242;2023-08-20T00:22:27;17.48;;;9.90;;
43962;SDS011;29622;45.534;9.242;2023-08-20T00:27:28;19.08;;;10.95;;
43962;SDS011;29622;45.534;9.242;2023-08-20T00:32:28;11.80;;;8.10;;
43962;SDS011;29622;45.534;9.242;2023-08-20T00:37:29;20.42;;;11.15;;
43962;SDS011;29622;45.534;9.242;2023-08-20T00:42:30;9.27;;;6.82;;
43962;SDS011;29622;45.534;9.242;2023-08-20T00:47:31;11.48;;;7.57;;
43962;SDS011;29622;45.534;9.242;2023-08-20T00:52:32;17.40;;;9.45;;
43962;SDS011;29622;45.534;9.242;2023-08-20T00:57:34;14.98;;;9.60;;
43962;SDS011;29622;45.534;9.242;2023-08-20T01:02:37;17.08;;;8.77;;
43962;SDS011;29622;45.534;9.242;2023-08-20T01:07:48;20.70;;;9.80;;
43962;SDS011;29622;45.534;9.242;2023-08-20T01:12:57;13.32;;;9.63;;
43962;SDS011;29622;45.534;9.242;2023-08-20T01:17:58;16.40;;;9.98;;
43962;SDS011;29622;45.534;9.242;2023-08-20T01:23:05;13.52;;;9.13;;
43962;SDS011;29622;45.534;9.242;2023-08-20T01:28:29;11.35;;;7.68;;
43962;SDS011;29622;45.534;9.242;2023-08-20T01:33:32;12.05;;;7.15;;
43962;SDS011;29622;45.534;9.242;2023-08-20T01:38:33;21.88;;;10.32;;
43962;SDS011;29622;45.534;9.242;2023-08-20T01:43:36;14.93;;;9.20;;
43962;SDS011;29622;45.534;9.242;2023-08-20T01:48:36;14.20;;;9.50;;
43962;SDS011;29622;45.534;9.242;2023-08-20T01:53:37;10.98;;;8.15;;
43962;SDS011;29622;45.534;9.242;2023-08-20T01:58:38;11.02;;;8.30;;
43962;SDS011;29622;45.534;9.242;2023-08-20T02:03:38;14.02;;;10.35;;
43962;SDS011;29622;45.534;9.242;2023-08-20T02:08:39;12.07;;;8.07;;
43962;SDS011;29622;45.534;9.242;2023-08-20T02:13:40;11.73;;;7.68;;
43962;SDS011;29622;45.534;9.242;2023-08-20T02:18:40;13.27;;;8.85;;
43962;SDS011;29622;45.534;9.242;2023-08-20T02:23:41;13.88;;;8.23;;
43962;SDS011;29622;45.534;9.242;2023-08-20T02:28:41;24.48;;;11.20;;
43962;SDS011;29622;45.534;9.242;2023-08-20T02:33:42;16.10;;;8.77;;
43962;SDS011;29622;45.534;9.242;2023-08-20T02:38:47;10.50;;;6.22;;
43962;SDS011;29622;45.534;9.242;2023-08-20T02:43:49;10.38;;;8.45;;
43962;SDS011;29622;45.534;9.242;2023-08-20T02:48:49;16.35;;;8.68;;
43962;SDS011;29622;45.534;9.242;2023-08-20T02:53:50;14.98;;;8.35;;
43962;SDS011;29622;45.534;9.242;2023-08-20T02:58:51;8.40;;;6.15;;
43962;SDS011;29622;45.534;9.242;2023-08-20T03:03:51;6.78;;;5.38;;
43962;SDS011;29622;45.534;9.242;2023-08-20T03:08:52;9.73;;;7.78;;
43962;SDS011;29622;45.534;9.242;2023-08-20T03:13:53;25.77;;;10.65;;
43962;SDS011;29622;45.534;9.242;2023-08-20T03:18:53;21.17;;;10.48;;
43962;SDS011;29622;45.534;9.242;2023-08-20T03:23:54;12.70;;;7.75;;
43962;SDS011;29622;45.534;9.242;2023-08-20T03:28:54;15.18;;;8.57;;
43962;SDS011;29622;45.534;9.242;2023-08-20T03:33:55;13.05;;;9.00;;
43962;SDS011;29622;45.534;9.242;2023-08-20T03:38:56;13.80;;;8.57;;
43962;SDS011;29622;45.534;9.242;2023-08-20T03:43:56;18.83;;;9.88;;
43962;SDS011;29622;45.534;9.242;2023-08-20T03:48:57;14.35;;;9.23;;
43962;SDS011;29622;45.534;9.242;2023-08-20T03:53:58;13.73;;;9.68;;
43962;SDS011;29622;45.534;9.242;2023-08-20T03:58:59;20.25;;;10.25;;
43962;SDS011;29622;45.534;9.242;2023-08-20T04:04:00;19.35;;;10.15;;
43962;SDS011;29622;45.534;9.242;2023-08-20T04:09:01;36.50;;;11.82;;
43962;SDS011;29622;45.534;9.242;2023-08-20T04:14:01;14.48;;;10.10;;
43962;SDS011;29622;45.534;9.242;2023-08-20T04:19:02;16.73;;;9.75;;
43962;SDS011;29622;45.534;9.242;2023-08-20T04:24:03;17.15;;;9.55;;
43962;SDS011;29622;45.534;9.242;2023-08-20T04:29:04;17.20;;;10.48;;
43962;SDS011;29622;45.534;9.242;2023-08-20T04:34:06;21.02;;;10.45;;
43962;SDS011;29622;45.534;9.242;2023-08-20T04:39:14;15.77;;;9.70;;
43962;SDS011;29622;45.534;9.242;2023-08-20T04:44:19;13.05;;;9.07;;
43962;SDS011;29622;45.534;9.242;2023-08-20T04:49:21;15.65;;;9.55;;
43962;SDS011;29622;45.534;9.242;2023-08-20T04:54:22;14.43;;;9.52;;
43962;SDS011;29622;45.534;9.242;2023-08-20T04:59:23;12.43;;;9.57;;
43962;SDS011;29622;45.534;9.242;2023-08-20T05:05:00;11.20;;;8.95;;
43962;SDS011;29622;45.534;9.242;2023-08-20T05:10:02;15.45;;;9.77;;
43962;SDS011;29622;45.534;9.242;2023-08-20T05:15:04;16.17;;;9.00;;
43962;SDS011;29622;45.534;9.242;2023-08-20T05:20:05;15.50;;;9.85;;
43962;SDS011;29622;45.534;9.242;2023-08-20T05:25:07;11.90;;;8.85;;
43962;SDS011;29622;45.534;9.242;2023-08-20T05:30:08;13.65;;;9.40;;
43962;SDS011;29622;45.534;9.242;2023-08-20T05:35:09;15.38;;;9.73;;
43962;SDS011;29622;45.534;9.242;2023-08-20T05:40:11;14.68;;;9.23;;
43962;SDS011;29622;45.534;9.242;2023-08-20T05:45:12;13.15;;;9.48;;
43962;SDS011;29622;45.534;9.242;2023-08-20T05:50:13;14.75;;;10.27;;
43962;SDS011;29622;45.534;9.242;2023-08-20T05:55:14;12.55;;;9.30;;
43962;SDS011;29622;45.534;9.242;2023-08-20T06:00:15;20.35;;;9.52;;
43962;SDS011;29622;45.534;9.242;2023-08-20T06:05:20;19.60;;;10.20;;
43962;SDS011;29622;45.534;9.242;2023-08-20T06:10:20;11.25;;;8.70;;
43962;SDS011;29622;45.534;9.242;2023-08-20T06:15:21;12.80;;;7.97;;
43962;SDS011;29622;45.534;9.242;2023-08-20T06:20:21;16.17;;;9.50;;
43962;SDS011;29622;45.534;9.242;2023-08-20T06:25:22;12.98;;;8.38;;
43962;SDS011;29622;45.534;9.242;2023-08-20T06:30:22;17.02;;;9.75;;
43962;SDS011;29622;45.534;9.242;2023-08-20T06:35:23;8.18;;;5.78;;
43962;SDS011;29622;45.534;9.242;2023-08-20T06:40:24;15.15;;;7.93;;
43962;SDS011;29622;45.534;9.242;2023-08-20T06:45:24;13.80;;;7.80;;
43962;SDS011;29622;45.534;9.242;2023-08-20T06:50:25;14.70;;;8.00;;
43962;SDS011;29622;45.534;9.242;2023-08-20T06:55:25;41.85;;;22.73;;
43962;SDS011;29622;45.534;9.242;2023-08-20T07:00:26;19.15;;;10.82;;
43962;SDS011;29622;45.534;9.242;2023-08-20T07:05:27;21.73;;;11.73;;
43962;SDS011;29622;45.534;9.242;2023-08-20T07:10:27;12.88;;;7.38;;
43962;SDS011;29622;45.534;9.242;2023-08-20T07:15:29;14.65;;;7.90;;
43962;SDS011;29622;45.534;9.242;2023-08-20T07:20:29;13.32;;;7.60;;
43962;SDS011;29622;45.534;9.242;2023-08-20T07:25:30;10.25;;;6.95;;
43962;SDS011;29622;45.534;9.242;2023-08-20T07:30:30;16.40;;;7.68;;
43962;SDS011;29622;45.534;9.242;2023-08-20T07:35:31;11.90;;;5.93;;
43962;SDS011;29622;45.534;9.242;2023-08-20T07:40:32;8.60;;;5.60;;
43962;SDS011;29622;45.534;9.242;2023-08-20T07:45:33;9.85;;;6.00;;
43962;SDS011;29622;45.534;9.242;2023-08-20T07:50:34;7.85;;;5.30;;
43962;SDS011;29622;45.534;9.242;2023-08-20T07:55:34;11.52;;;6.45;;
43962;SDS011;29622;45.534;9.242;2023-08-20T08:00:35;8.00;;;5.10;;
43962;SDS011;29622;45.534;9.242;2023-08-20T08:05:36;7.15;;;5.45;;
43962;SDS011;29622;45.534;9.242;2023-08-20T08:10:37;31.33;;;17.73;;
43962;SDS011;29622;45.534;9.242;2023-08-20T08:15:38;12.02;;;6.85;;
43962;SDS011;29622;45.534;9.242;2023-08-20T08:20:38;11.45;;;6.13;;
43962;SDS011;29622;45.534;9.242;2023-08-20T08:25:39;9.73;;;6.13;;
43962;SDS011;29622;45.534;9.242;2023-08-20T08:30:40;8.82;;;5.78;;
43962;SDS011;29622;45.534;9.242;2023-08-20T08:35:41;7.95;;;5.30;;
43962;SDS011;29622;45.534;9.242;2023-08-20T08:40:41;8.13;;;5.10;;
43962;SDS011;29622;45.534;9.242;2023-08-20T08:45:46;8.25;;;4.45;;
43962;SDS011;29622;45.534;9.242;2023-08-20T08:50:49;9.20;;;6.18;;
43962;SDS011;29622;45.534;9.242;2023-08-20T08:55:50;7.03;;;4.97;;
43962;SDS011;29622;45.534;9.242;2023-08-20T09:00:51;10.05;;;6.10;;
43962;SDS011;29622;45.534;9.242;2023-08-20T09:05:55;10.85;;;6.80;;
43962;SDS011;29622;45.534;9.242;2023-08-20T09:11:00;14.07;;;6.50;;
43962;SDS011;29622;45.534;9.242;2023-08-20T09:16:03;6.22;;;4.80;;
43962;SDS011;29622;45.534;9.242;2023-08-20T09:21:06;6.80;;;4.53;;
43962;SDS011;29622;45.534;9.242;2023-08-20T09:26:10;13.60;;;8.50;;
43962;SDS011;29622;45.534;9.242;2023-08-20T09:31:11;9.75;;;6.88;;
43962;SDS011;29622;45.534;9.242;2023-08-20T09:36:12;7.75;;;5.75;;
43962;SDS011;29622;45.534;9.242;2023-08-20T09:41:13;6.93;;;4.80;;
43962;SDS011;29622;45.534;9.242;2023-08-20T09:46:14;8.32;;;5.90;;
43962;SDS011;29622;45.534;9.242;2023-08-20T09:51:21;8.70;;;6.18;;
43962;SDS011;29622;45.534;9.242;2023-08-20T09:56:29;11.02;;;6.22;;
43962;SDS011;29622;45.534;9.242;2023-08-20T10:01:30;9.77;;;5.60;;
43962;SDS011;29622;45.534;9.242;2023-08-20T10:06:31;10.27;;;5.60;;
43962;SDS011;29622;45.534;9.242;2023-08-20T10:11:33;8.93;;;6.25;;
43962;SDS011;29622;45.534;9.242;2023-08-20T10:16:34;11.32;;;7.32;;
43962;SDS011;29622;45.534;9.242;2023-08-20T10:21:35;9.82;;;6.35;;
43962;SDS011;29622;45.534;9.242;2023-08-20T10:26:35;11.02;;;6.15;;
43962;SDS011;29622;45.534;9.242;2023-08-20T10:31:45;12.75;;;5.45;;
43962;SDS011;29622;45.534;9.242;2023-08-20T10:36:47;11.73;;;6.35;;
43962;SDS011;29622;45.534;9.242;2023-08-20T10:42:07;7.68;;;5.72;;
43962;SDS011;29622;45.534;9.242;2023-08-20T10:47:10;19.30;;;6.68;;
43962;SDS011;29622;45.534;9.242;2023-08-20T10:52:18;9.02;;;5.20;;
43962;SDS011;29622;45.534;9.242;2023-08-20T10:57:19;12.73;;;6.57;;
43962;SDS011;29622;45.534;9.242;2023-08-20T11:02:21;10.23;;;5.82;;
43962;SDS011;29622;45.534;9.242;2023-08-20T11:07:23;6.38;;;4.72;;
43962;SDS011;29622;45.534;9.242;2023-08-20T11:12:28;10.65;;;5.70;;
43962;SDS011;29622;45.534;9.242;2023-08-20T11:17:29;10.43;;;6.03;;
43962;SDS011;29622;45.534;9.242;2023-08-20T11:22:30;7.95;;;5.22;;
43962;SDS011;29622;45.534;9.242;2023-08-20T11:27:31;7.88;;;5.68;;
43962;SDS011;29622;45.534;9.242;2023-08-20T11:32:31;8.85;;;5.40;;
43962;SDS011;29622;45.534;9.242;2023-08-20T11:37:33;9.57;;;5.38;;
43962;SDS011;29622;45.534;9.242;2023-08-20T11:42:34;9.95;;;6.57;;
43962;SDS011;29622;45.534;9.242;2023-08-20T11:47:38;7.40;;;5.28;;
43962;SDS011;29622;45.534;9.242;2023-08-20T11:52:40;8.82;;;5.70;;
43962;SDS011;29622;45.534;9.242;2023-08-20T11:57:40;15.65;;;6.65;;
43962;SDS011;29622;45.534;9.242;2023-08-20T12:02:41;8.85;;;4.90;;
43962;SDS011;29622;45.534;9.242;2023-08-20T12:07:42;9.10;;;5.18;;
43962;SDS011;29622;45.534;9.242;2023-08-20T12:12:54;6.75;;;5.53;;
43962;SDS011;29622;45.534;9.242;2023-08-20T12:17:56;5.78;;;4.55;;
43962;SDS011;29622;45.534;9.242;2023-08-20T12:23:01;11.15;;;6.22;;
43962;SDS011;29622;45.534;9.242;2023-08-20T12:28:04;5.30;;;4.30;;
43962;SDS011;29622;45.534;9.242;2023-08-20T12:33:05;9.00;;;6.05;;
43962;SDS011;29622;45.534;9.242;2023-08-20T12:38:06;13.93;;;6.45;;
43962;SDS011;29622;45.534;9.242;2023-08-20T12:43:07;10.70;;;6.68;;
43962;SDS011;29622;45.534;9.242;2023-08-20T12:48:08;11.93;;;6.25;;
43962;SDS011;29622;45.534;9.242;2023-08-20T12:53:09;9.30;;;5.28;;
43962;SDS011;29622;45.534;9.242;2023-08-20T12:58:10;11.02;;;6.55;;
43962;SDS011;29622;45.534;9.242;2023-08-20T13:03:10;15.75;;;6.40;;
43962;SDS011;29622;45.534;9.242;2023-08-20T13:08:11;17.42;;;7.15;;
43962;SDS011;29622;45.534;9.242;2023-08-20T13:13:12;11.40;;;5.90;;
43962;SDS011;29622;45.534;9.242;2023-08-20T13:18:13;9.68;;;6.15;;
43962;SDS011;29622;45.534;9.242;2023-08-20T13:23:14;10.70;;;6.72;;
43962;SDS011;29622;45.534;9.242;2023-08-20T13:28:15;7.30;;;4.38;;
43962;SDS011;29622;45.534;9.242;2023-08-20T13:33:15;6.80;;;4.50;;
43962;SDS011;29622;45.534;9.242;2023-08-20T13:38:16;6.60;;;4.50;;
43962;SDS011;29622;45.534;9.242;2023-08-20T13:43:16;6.32;;;4.63;;
43962;SDS011;29622;45.534;9.242;2023-08-20T13:48:17;6.22;;;4.60;;
43962;SDS011;29622;45.534;9.242;2023-08-20T13:53:18;6.15;;;4.15;;
43962;SDS011;29622;45.534;9.242;2023-08-20T13:58:18;5.88;;;4.50;;
43962;SDS011;29622;45.534;9.242;2023-08-20T14:03:19;11.07;;;5.80;;
43962;SDS011;29622;45.534;9.242;2023-08-20T14:08:20;9.90;;;6.07;;
43962;SDS011;29622;45.534;9.242;2023-08-20T14:13:20;9.13;;;4.60;;
43962;SDS011;29622;45.534;9.242;2023-08-20T14:18:22;5.05;;;4.15;;
43962;SDS011;29622;45.534;9.242;2023-08-20T14:23:23;10.55;;;5.07;;
43962;SDS011;29622;45.534;9.242;2023-08-20T14:28:23;9.55;;;5.55;;
43962;SDS011;29622;45.534;9.242;2023-08-20T14:33:24;6.47;;;4.65;;
43962;SDS011;29622;45.534;9.242;2023-08-20T14:38:25;7.22;;;5.57;;
43962;SDS011;29622;45.534;9.242;2023-08-20T14:43:26;9.20;;;5.18;;
43962;SDS011;29622;45.534;9.242;2023-08-20T14:48:26;7.03;;;4.75;;
43962;SDS011;29622;45.534;9.242;2023-08-20T14:53:27;12.95;;;6.20;;
43962;SDS011;29622;45.534;9.242;2023-08-20T14:58:28;7.40;;;5.40;;
43962;SDS011;29622;45.534;9.242;2023-08-20T15:03:29;6.95;;;4.78;;
43962;SDS011;29622;45.534;9.242;2023-08-20T15:08:30;6.20;;;4.35;;
43962;SDS011;29622;45.534;9.242;2023-08-20T15:13:31;7.28;;;5.32;;
43962;SDS011;29622;45.534;9.242;2023-08-20T15:18:32;7.72;;;5.70;;
43962;SDS011;29622;45.534;9.242;2023-08-20T15:23:32;5.00;;;4.07;;
43962;SDS011;29622;45.534;9.242;2023-08-20T15:28:34;7.40;;;4.97;;
43962;SDS011;29622;45.534;9.242;2023-08-20T15:33:34;10.73;;;6.00;;
43962;SDS011;29622;45.534;9.242;2023-08-20T15:38:35;8.68;;;5.15;;
43962;SDS011;29622;45.534;9.242;2023-08-20T15:43:36;7.13;;;5.35;;
43962;SDS011;29622;45.534;9.242;2023-08-20T15:48:36;9.85;;;5.25;;
43962;SDS011;29622;45.534;9.242;2023-08-20T15:53:38;6.18;;;4.82;;
43962;SDS011;29622;45.534;9.242;2023-08-20T15:58:39;20.50;;;6.70;;
43962;SDS011;29622;45.534;9.242;2023-08-20T16:03:40;8.05;;;4.53;;
43962;SDS011;29622;45.534;9.242;2023-08-20T16:08:42;11.02;;;5.35;;
43962;SDS011;29622;45.534;9.242;2023-08-20T16:13:43;5.90;;;4.57;;
43962;SDS011;29622;45.534;9.242;2023-08-20T16:18:47;8.85;;;5.10;;
43962;SDS011;29622;45.534;9.242;2023-08-20T16:23:47;8.32;;;6.45;;
43962;SDS011;29622;45.534;9.242;2023-08-20T16:28:48;12.93;;;6.57;;
43962;SDS011;29622;45.534;9.242;2023-08-20T16:33:49;7.10;;;4.63;;
43962;SDS011;29622;45.534;9.242;2023-08-20T16:38:51;5.90;;;4.25;;
43962;SDS011;29622;45.534;9.242;2023-08-20T16:43:52;5.97;;;4.53;;
43962;SDS011;29622;45.534;9.242;2023-08-20T16:48:53;13.55;;;7.93;;
43962;SDS011;29622;45.534;9.242;2023-08-20T16:53:54;7.25;;;5.40;;
43962;SDS011;29622;45.534;9.242;2023-08-20T16:58:54;8.57;;;5.65;;
43962;SDS011;29622;45.534;9.242;2023-08-20T17:03:55;10.00;;;6.15;;
43962;SDS011;29622;45.534;9.242;2023-08-20T17:08:57;10.93;;;6.25;;
43962;SDS011;29622;45.534;9.242;2023-08-20T17:13:57;14.88;;;6.57;;
43962;SDS011;29622;45.534;9.242;2023-08-20T17:18:58;10.18;;;6.15;;
43962;SDS011;29622;45.534;9.242;2023-08-20T17:23:59;11.80;;;5.40;;
43962;SDS011;29622;45.534;9.242;2023-08-20T17:28:59;8.93;;;6.22;;
43962;SDS011;29622;45.534;9.242;2023-08-20T17:34:00;8.18;;;5.47;;
43962;SDS011;29622;45.534;9.242;2023-08-20T17:39:01;17.52;;;6.53;;
43962;SDS011;29622;45.534;9.242;2023-08-20T17:44:02;10.27;;;5.68;;
43962;SDS011;29622;45.534;9.242;2023-08-20T17:49:02;11.95;;;5.63;;
43962;SDS011;29622;45.534;9.242;2023-08-20T17:54:03;10.15;;;5.22;;
43962;SDS011;29622;45.534;9.242;2023-08-20T17:59:05;7.97;;;5.30;;
43962;SDS011;29622;45.534;9.242;2023-08-20T18:04:06;9.95;;;6.40;;
43962;SDS011;29622;45.534;9.242;2023-08-20T18:09:07;12.43;;;6.95;;
43962;SDS011;29622;45.534;9.242;2023-08-20T18:14:08;21.33;;;6.55;;
43962;SDS011;29622;45.534;9.242;2023-08-20T18:19:09;11.02;;;6.32;;
43962;SDS011;29622;45.534;9.242;2023-08-20T18:24:09;8.77;;;6.03;;
43962;SDS011;29622;45.534;9.242;2023-08-20T18:29:10;7.55;;;5.95;;
43962;SDS011;29622;45.534;9.242;2023-08-20T18:34:11;10.48;;;5.45;;
43962;SDS011;29622;45.534;9.242;2023-08-20T18:39:11;6.68;;;5.20;;
43962;SDS011;29622;45.534;9.242;2023-08-20T18:44:15;11.32;;;6.60;;
43962;SDS011;29622;45.534;9.242;2023-08-20T18:49:15;10.63;;;6.18;;
43962;SDS011;29622;45.534;9.242;2023-08-20T18:54:16;17.45;;;7.45;;
43962;SDS011;29622;45.534;9.242;2023-08-20T18:59:17;12.75;;;6.13;;
43962;SDS011;29622;45.534;9.242;2023-08-20T19:04:18;14.75;;;6.18;;
43962;SDS011;29622;45.534;9.242;2023-08-20T19:09:18;19.08;;;6.63;;
43962;SDS011;29622;45.534;9.242;2023-08-20T19:14:19;10.13;;;6.43;;
43962;SDS011;29622;45.534;9.242;2023-08-20T19:19:19;17.10;;;6.30;;
43962;SDS011;29622;45.534;9.242;2023-08-20T19:24:20;15.15;;;6.47;;
43962;SDS011;29622;45.534;9.242;2023-08-20T19:29:21;8.65;;;5.55;;
43962;SDS011;29622;45.534;9.242;2023-08-20T19:34:21;11.00;;;5.72;;
43962;SDS011;29622;45.534;9.242;2023-08-20T19:39:22;12.75;;;6.15;;
43962;SDS011;29622;45.534;9.242;2023-08-20T19:44:23;23.73;;;6.82;;
43962;SDS011;29622;45.534;9.242;2023-08-20T19:49:23;8.50;;;5.45;;
43962;SDS011;29622;45.534;9.242;2023-08-20T19:54:24;9.80;;;6.63;;
43962;SDS011;29622;45.534;9.242;2023-08-20T19:59:25;12.90;;;5.88;;
43962;SDS011;29622;45.534;9.242;2023-08-20T20:04:25;11.57;;;5.63;;
43962;SDS011;29622;45.534;9.242;2023-08-20T20:09:27;21.20;;;6.88;;
43962;SDS011;29622;45.534;9.242;2023-08-20T20:14:28;7.65;;;5.18;;
43962;SDS011;29622;45.534;9.242;2023-08-20T20:19:29;10.10;;;6.55;;
43962;SDS011;29622;45.534;9.242;2023-08-20T20:24:29;9.20;;;5.70;;
43962;SDS011;29622;45.534;9.242;2023-08-20T20:29:30;10.50;;;5.88;;
43962;SDS011;29622;45.534;9.242;2023-08-20T20:34:31;12.23;;;6.55;;
43962;SDS011;29622;45.534;9.242;2023-08-20T20:39:32;15.13;;;5.63;;
43962;SDS011;29622;45.534;9.242;2023-08-20T20:44:34;11.48;;;5.20;;
43962;SDS011;29622;45.534;9.242;2023-08-20T20:49:34;11.15;;;6.18;;
43962;SDS011;29622;45.534;9.242;2023-08-20T20:54:35;12.15;;;5.78;;
43962;SDS011;29622;45.534;9.242;2023-08-20T20:59:37;14.52;;;6.30;;
43962;SDS011;29622;45.534;9.242;2023-08-20T21:04:38;17.33;;;7.75;;
43962;SDS011;29622;45.534;9.242;2023-08-20T21:09:39;8.85;;;5.80;;
43962;SDS011;29622;45.534;9.242;2023-08-20T21:14:39;15.43;;;6.07;;
43962;SDS011;29622;45.534;9.242;2023-08-20T21:19:40;16.88;;;7.03;;
43962;SDS011;29622;45.534;9.242;2023-08-20T21:24:40;13.02;;;6.38;;
43962;SDS011;29622;45.534;9.242;2023-08-20T21:29:41;13.20;;;6.07;;
43962;SDS011;29622;45.534;9.242;2023-08-20T21:34:42;8.80;;;5.35;;
43962;SDS011;29622;45.534;9.242;2023-08-20T21:39:46;9.05;;;5.80;;
43962;SDS011;29622;45.534;9.242;2023-08-20T21:44:47;15.60;;;5.95;;
43962;SDS011;29622;45.534;9.242;2023-08-20T21:49:48;13.52;;;7.38;;
43962;SDS011;29622;45.534;9.242;2023-08-20T21:54:49;13.05;;;7.10;;
43962;SDS011;29622;45.534;9.242;2023-08-20T21:59:51;11.43;;;6.20;;
43962;SDS011;29622;45.534;9.242;2023-08-20T22:05:09;18.35;;;7.47;;
43962;SDS011;29622;45.534;9.242;2023-08-20T22:10:11;9.88;;;6.53;;
43962;SDS011;29622;45.534;9.242;2023-08-20T22:15:13;10.77;;;6.00;;
43962;SDS011;29622;45.534;9.242;2023-08-20T22:20:13;12.88;;;6.70;;
43962;SDS011;29622;45.534;9.242;2023-08-20T22:25:15;11.98;;;6.45;;
43962;SDS011;29622;45.534;9.242;2023-08-20T22:30:15;13.50;;;7.20;;
43962;SDS011;29622;45.534;9.242;2023-08-20T22:35:16;11.95;;;7.25;;
43962;SDS011;29622;45.534;9.242;2023-08-20T22:40:17;15.32;;;6.60;;
43962;SDS011;29622;45.534;9.242;2023-08-20T22:45:17;10.45;;;7.80;;
43962;SDS011;29622;45.534;9.242;2023-08-20T22:50:18;14.02;;;7.43;;
43962;SDS011;29622;45.534;9.242;2023-08-20T22:55:19;14.85;;;7.53;;
43962;SDS011;29622;45.534;9.242;2023-08-20T23:00:19;12.45;;;7.70;;
43962;SDS011;29622;45.534;9.242;2023-08-20T23:05:21;11.10;;;7.30;;
43962;SDS011;29622;45.534;9.242;2023-08-20T23:10:22;13.15;;;7.53;;
43962;SDS011;29622;45.534;9.242;2023-08-20T23:15:23;12.07;;;8.45;;
43962;SDS011;29622;45.534;9.242;2023-08-20T23:20:24;11.00;;;7.85;;
43962;SDS011;29622;45.534;9.242;2023-08-20T23:25:24;10.52;;;7.75;;
43962;SDS011;29622;45.534;9.242;2023-08-20T23:30:25;17.27;;;8.23;;
43962;SDS011;29622;45.534;9.242;2023-08-20T23:35:26;15.43;;;7.80;;
43962;SDS011;29622;45.534;9.242;2023-08-20T23:40:26;19.55;;;8.23;;
43962;SDS011;29622;45.534;9.242;2023-08-20T23:45:27;15.07;;;7.63;;
43962;SDS011;29622;45.534;9.242;2023-08-20T23:50:28;10.07;;;7.72;;
43962;SDS011;29622;45.534;9.242;2023-08-20T23:55:28;10.43;;;7.93;;
